AirNav   Pilot Hours Calculator
 
 1659 users online  

8TA4 Texas Health Willow Park Heliport
Willow Park, Texas, USA

GOING TO WILLOW PARK?


FAA INFORMATION EFFECTIVE 07 OCTOBER 2021

Location

FAA Identifier: 8TA4
Lat/Long: 32-44-42.8000N 097-39-42.1000W
32-44.713333N 097-39.701667W
32.7452222,-97.6616944
(estimated)
Elevation: 856 ft. / 261 m
From city: 1 mile SW of WILLOW PARK, TX
Time zone: UTC -5 (UTC -6 during Standard Time)
Zip code: 76008

Heliport Operations

Heliport use: Private use. Permission required prior to landing
Activation date: 10/2015
Control tower: no
ARTCC: FORT WORTH CENTER
FSS: FORT WORTH FLIGHT SERVICE STATION
Attendance: CONTINUOUS
Wind indicator: yes
Segmented circle: no
Lights: SS-SR

Heliport Communications

WX ASOS at FTW (16 nm E): PHONE 817-740-3346
WX AWOS-3 at GDJ (20 nm SW): 118.925 (817-573-7514)

Nearby radio navigation aids

VOR radial/distance  VOR name  Freq  Var
MQPr077/17.0MILLSAP VORTAC117.7009E
FUZr244/25.8RANGER VORTAC115.7006E
TTTr251/32.2MAVERICK VOR/DME113.1006E
CVEr251/39.2COWBOY VOR/DME116.2006E

Heliport Services

Runway Information

Helipad H1

Dimensions: 42 x 42 ft. / 13 x 13 m
Surface: concrete
Runway edge lights: PERI
Traffic pattern: leftleft

Heliport Ownership and Management from official FAA records

Ownership: Privately-owned
Owner: TEXAS HEALTH RESOURCES
612 EAST LAMAR BLVD
ARLINGTON, TX 76011
Phone 682-236-7144
Manager: SALAL JAMAL
101 CROWN POINTE BLVD.
WILLOW PARK, TX 76087
Phone 817-757-1515

Additional Remarks

FOR CD CTC REGIONAL APCH AT 972-615-2799.

Instrument Procedures

There are no published instrument procedures at 8TA4.

Some nearby airports with instrument procedures:

KWEA - Parker County Airport (1 nm W)
50F - Bourland Field Airport (10 nm S)
KNFW - Fort Worth Naval Air Station JRB (Carswell Field) Airport (11 nm E)
KFTW - Fort Worth Meacham International Airport (16 nm E)
4T2 - Kenneth Copeland Airport (16 nm NE)
KGDJ - Granbury Regional Airport (20 nm SW)
 
Loc | Ops | Rwys | IFR | FBO | Links
Com | Nav | Svcs | Stats | Notes

City of Fort Worth
 
Aerial photo
No photo
 
Airport distance calculator
Flying to Texas Health Willow Park Heliport? Find the distance to fly.

From to 8TA4

Sunrise and sunset
Times for 19-Oct-2021
 Local
(UTC-5)
 Zulu
(UTC)
Morning civil twilight07:1412:14
Sunrise07:3912:39
Sunset18:5323:53
Evening civil twilight19:1700:17

Current date and time
Zulu (UTC)  19-Oct-2021 15:58:38
Local (UTC-5)  19-Oct-2021 10:58:38
 
METAR
KNFW 
11nm E 
191552Z 16009KT 10SM FEW200 SCT250 22/14 A3007 RMK AO2 SLP166 T02220139 $
KFTW 
16nm E 
191553Z 16012KT 10SM CLR 21/14 A3006 RMK AO2 SLP174 T02110139
KGDJ 
20nm SW 
AWOS-3 118.925 817-573-7514
191535Z AUTO 16014KT 10SM CLR 20/13 A3007 RMK AO2 T02000134
KMWL 
21nm W 
191553Z AUTO 14012KT 10SM CLR 21/14 A3003 RMK AO2 SLP161 T02060139
KFWS 
21nm SE 
191547Z 15013G17KT 10SM CLR 21/14 A3009
TAF
KNFW 
11nm E 
1907/2007 15013KT 9999 FEW150 SCT250 BKN300 QNH3000INS BECMG 1921/1923 FEW080 QNH2996INS AUTOMATED SENSOR METWATCH 1907 TIL 1911 T15/1909Z T26/1921Z FN00242
KFTW 
16nm E 
191120Z 1912/2012 16008KT P6SM BKN250 FM191800 17013G23KT P6SM SCT250 FM200000 17015KT P6SM FEW250
NOTAMs
Click for the latest NOTAMs
NOTAMs are issued by the DoD/FAA and will open in a separate window not controlled by AirNav.

 

 
 

Would you like to see your business listed on this page?

 If your business provides an interesting product or service to pilots, flight crews, aircraft, or users of the Texas Health Willow Park Heliport, you should consider listing it here.  To start the listing process, click on the button below
 
Add a business
 

Other Pages about Texas Health Willow Park Heliport

Update a link
 
Copyright © AirNav, LLC. All rights reserved. Privacy Policy  Contact